sensor_id;sensor_type;location;lat;lon;timestamp;pressure;altitude;pressure_sealevel;temperature;humidity
37904;BME280;23738;50.422;18.758;2023-02-19T00:02:05;98216.48;;;6.15;89.57
37904;BME280;23738;50.422;18.758;2023-02-19T00:04:33;98215.19;;;6.17;89.44
37904;BME280;23738;50.422;18.758;2023-02-19T00:07:00;98210.33;;;6.17;89.21
37904;BME280;23738;50.422;18.758;2023-02-19T00:09:48;98211.25;;;6.14;89.45
37904;BME280;23738;50.422;18.758;2023-02-19T00:12:35;98216.38;;;6.14;89.38
37904;BME280;23738;50.422;18.758;2023-02-19T00:15:02;98215.09;;;6.16;89.36
37904;BME280;23738;50.422;18.758;2023-02-19T00:17:31;98213.43;;;6.19;89.34
37904;BME280;23738;50.422;18.758;2023-02-19T00:19:58;98208.58;;;6.23;89.74
37904;BME280;23738;50.422;18.758;2023-02-19T00:22:26;98211.02;;;6.27;89.63
37904;BME280;23738;50.422;18.758;2023-02-19T00:24:53;98216.00;;;6.28;89.55
37904;BME280;23738;50.422;18.758;2023-02-19T00:27:21;98218.96;;;6.28;89.84
37904;BME280;23738;50.422;18.758;2023-02-19T00:29:48;98222.90;;;6.27;89.60
37904;BME280;23738;50.422;18.758;2023-02-19T00:32:16;98216.38;;;6.26;89.63
37904;BME280;23738;50.422;18.758;2023-02-19T00:34:44;98210.54;;;6.24;89.85
37904;BME280;23738;50.422;18.758;2023-02-19T00:37:11;98217.74;;;6.28;89.65
37904;BME280;23738;50.422;18.758;2023-02-19T00:39:38;98220.20;;;6.28;89.59
37904;BME280;23738;50.422;18.758;2023-02-19T00:42:06;98222.52;;;6.26;89.59
37904;BME280;23738;50.422;18.758;2023-02-19T00:44:53;98224.67;;;6.26;89.83
37904;BME280;23738;50.422;18.758;2023-02-19T00:47:20;98228.49;;;6.27;89.83
37904;BME280;23738;50.422;18.758;2023-02-19T00:49:48;98221.66;;;6.26;89.61
37904;BME280;23738;50.422;18.758;2023-02-19T00:52:15;98219.91;;;6.28;89.79
37904;BME280;23738;50.422;18.758;2023-02-19T00:55:02;98220.04;;;6.28;89.67
37904;BME280;23738;50.422;18.758;2023-02-19T00:57:30;98217.12;;;6.23;89.59
37904;BME280;23738;50.422;18.758;2023-02-19T00:59:57;98218.33;;;6.22;89.54
37904;BME280;23738;50.422;18.758;2023-02-19T01:02:25;98220.44;;;6.23;89.91
37904;BME280;23738;50.422;18.758;2023-02-19T01:04:52;98219.52;;;6.26;89.91
37904;BME280;23738;50.422;18.758;2023-02-19T01:07:19;98218.31;;;6.29;89.75
37904;BME280;23738;50.422;18.758;2023-02-19T01:09:47;98222.48;;;6.32;89.97
37904;BME280;23738;50.422;18.758;2023-02-19T01:12:14;98225.02;;;6.32;89.84
37904;BME280;23738;50.422;18.758;2023-02-19T01:14:42;98218.98;;;6.31;89.85
37904;BME280;23738;50.422;18.758;2023-02-19T01:17:09;98220.54;;;6.32;89.98
37904;BME280;23738;50.422;18.758;2023-02-19T01:19:37;98218.04;;;6.34;90.09
37904;BME280;23738;50.422;18.758;2023-02-19T01:22:04;98215.70;;;6.35;90.10
37904;BME280;23738;50.422;18.758;2023-02-19T01:24:31;98212.02;;;6.32;90.22
37904;BME280;23738;50.422;18.758;2023-02-19T01:26:58;98201.83;;;6.31;90.11
37904;BME280;23738;50.422;18.758;2023-02-19T01:29:26;98197.99;;;6.31;90.28
37904;BME280;23738;50.422;18.758;2023-02-19T01:31:53;98195.30;;;6.28;90.29
37904;BME280;23738;50.422;18.758;2023-02-19T01:34:20;98192.06;;;6.28;90.23
37904;BME280;23738;50.422;18.758;2023-02-19T01:36:48;98186.70;;;6.26;90.12
37904;BME280;23738;50.422;18.758;2023-02-19T01:39:15;98182.83;;;6.32;90.46
37904;BME280;23738;50.422;18.758;2023-02-19T01:41:42;98182.42;;;6.37;90.72
37904;BME280;23738;50.422;18.758;2023-02-19T01:47:09;98176.98;;;6.40;90.68
37904;BME280;23738;50.422;18.758;2023-02-19T01:49:38;98174.85;;;6.38;90.77
37904;BME280;23738;50.422;18.758;2023-02-19T01:52:31;98177.45;;;6.39;90.38
37904;BME280;23738;50.422;18.758;2023-02-19T01:55:02;98172.86;;;6.40;90.64
37904;BME280;23738;50.422;18.758;2023-02-19T01:57:52;98168.77;;;6.38;90.51
37904;BME280;23738;50.422;18.758;2023-02-19T02:00:20;98167.79;;;6.35;90.62
37904;BME280;23738;50.422;18.758;2023-02-19T02:02:51;98164.89;;;6.27;90.40
37904;BME280;23738;50.422;18.758;2023-02-19T02:05:28;98160.41;;;6.22;90.69
37904;BME280;23738;50.422;18.758;2023-02-19T02:07:59;98161.35;;;6.21;90.46
37904;BME280;23738;50.422;18.758;2023-02-19T02:10:46;98149.89;;;6.21;90.51
37904;BME280;23738;50.422;18.758;2023-02-19T02:13:14;98141.02;;;6.22;90.92
37904;BME280;23738;50.422;18.758;2023-02-19T02:15:50;98139.41;;;6.22;90.96
37904;BME280;23738;50.422;18.758;2023-02-19T02:18:30;98133.88;;;6.19;90.99
37904;BME280;23738;50.422;18.758;2023-02-19T02:21:08;98136.70;;;6.21;91.02
37904;BME280;23738;50.422;18.758;2023-02-19T02:23:53;98129.98;;;6.22;90.84
37904;BME280;23738;50.422;18.758;2023-02-19T02:26:32;98130.55;;;6.24;90.74
37904;BME280;23738;50.422;18.758;2023-02-19T02:29:20;98124.73;;;6.23;91.10
37904;BME280;23738;50.422;18.758;2023-02-19T02:32:14;98134.77;;;6.24;91.25
37904;BME280;23738;50.422;18.758;2023-02-19T02:35:00;98127.67;;;6.24;90.98
37904;BME280;23738;50.422;18.758;2023-02-19T02:37:30;98123.98;;;6.21;91.17
37904;BME280;23738;50.422;18.758;2023-02-19T02:40:02;98123.38;;;6.15;91.29
37904;BME280;23738;50.422;18.758;2023-02-19T02:42:32;98122.92;;;6.13;91.44
37904;BME280;23738;50.422;18.758;2023-02-19T02:45:30;98121.09;;;6.12;91.32
37904;BME280;23738;50.422;18.758;2023-02-19T02:48:21;98121.16;;;6.12;91.40
37904;BME280;23738;50.422;18.758;2023-02-19T02:50:53;98117.05;;;6.08;91.29
37904;BME280;23738;50.422;18.758;2023-02-19T02:53:26;98113.91;;;6.04;91.34
37904;BME280;23738;50.422;18.758;2023-02-19T02:56:13;98110.23;;;5.99;92.28
37904;BME280;23738;50.422;18.758;2023-02-19T02:58:42;98112.64;;;5.94;91.58
37904;BME280;23738;50.422;18.758;2023-02-19T03:01:14;98108.28;;;5.92;91.62
37904;BME280;23738;50.422;18.758;2023-02-19T03:04:03;98106.20;;;5.91;91.84
37904;BME280;23738;50.422;18.758;2023-02-19T03:06:34;98097.73;;;5.84;91.76
37904;BME280;23738;50.422;18.758;2023-02-19T03:09:09;98098.45;;;5.84;91.46
37904;BME280;23738;50.422;18.758;2023-02-19T03:11:40;98099.18;;;5.81;91.62
37904;BME280;23738;50.422;18.758;2023-02-19T03:14:32;98103.35;;;5.79;91.83
37904;BME280;23738;50.422;18.758;2023-02-19T03:17:25;98101.86;;;5.74;91.87
37904;BME280;23738;50.422;18.758;2023-02-19T03:20:15;98106.11;;;5.71;92.08
37904;BME280;23738;50.422;18.758;2023-02-19T03:22:45;98103.20;;;5.67;91.85
37904;BME280;23738;50.422;18.758;2023-02-19T03:25:15;98098.38;;;5.68;92.08
37904;BME280;23738;50.422;18.758;2023-02-19T03:28:04;98099.64;;;5.69;92.04
37904;BME280;23738;50.422;18.758;2023-02-19T03:30:35;98095.02;;;5.68;92.27
37904;BME280;23738;50.422;18.758;2023-02-19T03:33:08;98097.95;;;5.67;92.01
37904;BME280;23738;50.422;18.758;2023-02-19T03:35:40;98103.02;;;5.69;91.98
37904;BME280;23738;50.422;18.758;2023-02-19T03:38:33;98106.65;;;5.70;92.13
37904;BME280;23738;50.422;18.758;2023-02-19T03:41:08;98106.63;;;5.72;92.41
37904;BME280;23738;50.422;18.758;2023-02-19T03:43:41;98097.22;;;5.70;92.40
37904;BME280;23738;50.422;18.758;2023-02-19T03:46:13;98092.43;;;5.71;92.02
37904;BME280;23738;50.422;18.758;2023-02-19T03:48:49;98098.89;;;5.74;92.28
37904;BME280;23738;50.422;18.758;2023-02-19T03:51:25;98093.46;;;5.74;92.43
37904;BME280;23738;50.422;18.758;2023-02-19T03:54:04;98089.18;;;5.81;92.31
37904;BME280;23738;50.422;18.758;2023-02-19T03:56:40;98084.23;;;5.84;92.45
37904;BME280;23738;50.422;18.758;2023-02-19T03:59:13;98081.55;;;5.88;92.28
37904;BME280;23738;50.422;18.758;2023-02-19T04:01:46;98084.80;;;5.95;92.55
37904;BME280;23738;50.422;18.758;2023-02-19T04:04:18;98081.90;;;5.92;92.63
37904;BME280;23738;50.422;18.758;2023-02-19T04:07:08;98081.79;;;5.90;92.53
37904;BME280;23738;50.422;18.758;2023-02-19T04:09:39;98078.56;;;5.95;92.81
37904;BME280;23738;50.422;18.758;2023-02-19T04:12:28;98072.45;;;6.00;92.60
37904;BME280;23738;50.422;18.758;2023-02-19T04:15:17;98068.41;;;6.03;92.72
37904;BME280;23738;50.422;18.758;2023-02-19T04:18:06;98068.13;;;6.04;92.74
37904;BME280;23738;50.422;18.758;2023-02-19T04:20:39;98064.96;;;6.01;92.91
37904;BME280;23738;50.422;18.758;2023-02-19T04:23:09;98061.05;;;6.03;92.92
37904;BME280;23738;50.422;18.758;2023-02-19T04:25:38;98061.40;;;6.06;93.09
37904;BME280;23738;50.422;18.758;2023-02-19T04:28:08;98049.67;;;6.05;92.77
37904;BME280;23738;50.422;18.758;2023-02-19T04:30:36;98051.48;;;6.10;92.74
37904;BME280;23738;50.422;18.758;2023-02-19T04:33:04;98042.50;;;6.07;92.56
37904;BME280;23738;50.422;18.758;2023-02-19T04:35:31;98047.86;;;6.06;92.93
37904;BME280;23738;50.422;18.758;2023-02-19T04:37:58;98045.91;;;6.05;92.83
37904;BME280;23738;50.422;18.758;2023-02-19T04:40:26;98046.11;;;6.05;92.90
37904;BME280;23738;50.422;18.758;2023-02-19T04:42:53;98037.07;;;6.05;92.86
37904;BME280;23738;50.422;18.758;2023-02-19T04:45:40;98026.25;;;6.04;93.02
37904;BME280;23738;50.422;18.758;2023-02-19T04:48:08;98015.23;;;5.99;92.80
37904;BME280;23738;50.422;18.758;2023-02-19T04:50:37;98014.02;;;6.07;92.71
37904;BME280;23738;50.422;18.758;2023-02-19T04:53:05;98014.58;;;6.06;93.14
37904;BME280;23738;50.422;18.758;2023-02-19T04:55:36;98006.61;;;6.02;93.08
37904;BME280;23738;50.422;18.758;2023-02-19T04:58:03;98004.77;;;6.06;92.91
37904;BME280;23738;50.422;18.758;2023-02-19T05:00:31;98002.81;;;6.09;93.00
37904;BME280;23738;50.422;18.758;2023-02-19T05:02:59;98001.27;;;6.09;92.95
37904;BME280;23738;50.422;18.758;2023-02-19T05:05:47;98000.14;;;6.09;93.29
37904;BME280;23738;50.422;18.758;2023-02-19T05:08:14;98001.50;;;6.10;93.14
37904;BME280;23738;50.422;18.758;2023-02-19T05:10:41;98004.68;;;6.09;93.30
37904;BME280;23738;50.422;18.758;2023-02-19T05:13:09;98014.50;;;6.11;93.05
37904;BME280;23738;50.422;18.758;2023-02-19T05:15:37;98009.53;;;6.10;92.87
37904;BME280;23738;50.422;18.758;2023-02-19T05:18:05;98011.09;;;6.11;93.36
37904;BME280;23738;50.422;18.758;2023-02-19T05:20:52;98012.84;;;6.17;93.37
37904;BME280;23738;50.422;18.758;2023-02-19T05:23:20;98005.62;;;6.15;93.57
37904;BME280;23738;50.422;18.758;2023-02-19T05:25:48;97988.54;;;6.16;93.28
37904;BME280;23738;50.422;18.758;2023-02-19T05:28:15;97990.94;;;6.18;93.24
37904;BME280;23738;50.422;18.758;2023-02-19T05:31:06;97993.15;;;6.21;93.59
37904;BME280;23738;50.422;18.758;2023-02-19T05:33:34;97992.16;;;6.23;93.39
37904;BME280;23738;50.422;18.758;2023-02-19T05:36:07;97992.45;;;6.27;93.67
37904;BME280;23738;50.422;18.758;2023-02-19T05:38:35;97983.04;;;6.22;93.47
37904;BME280;23738;50.422;18.758;2023-02-19T05:41:11;97988.40;;;6.26;93.58
37904;BME280;23738;50.422;18.758;2023-02-19T05:43:41;97986.69;;;6.24;93.72
37904;BME280;23738;50.422;18.758;2023-02-19T05:46:11;97988.73;;;6.23;93.34
37904;BME280;23738;50.422;18.758;2023-02-19T05:48:39;97982.50;;;6.24;93.44
37904;BME280;23738;50.422;18.758;2023-02-19T05:51:08;97987.95;;;6.27;93.48
37904;BME280;23738;50.422;18.758;2023-02-19T05:53:37;97991.36;;;6.26;93.42
37904;BME280;23738;50.422;18.758;2023-02-19T05:56:22;97990.02;;;6.25;93.32
37904;BME280;23738;50.422;18.758;2023-02-19T05:59:06;97990.83;;;6.23;93.45
37904;BME280;23738;50.422;18.758;2023-02-19T06:01:34;97993.75;;;6.25;93.38
37904;BME280;23738;50.422;18.758;2023-02-19T06:04:21;97987.73;;;6.24;93.42
37904;BME280;23738;50.422;18.758;2023-02-19T06:06:49;97985.27;;;6.27;93.54
37904;BME280;23738;50.422;18.758;2023-02-19T06:09:16;97992.98;;;6.27;93.66
37904;BME280;23738;50.422;18.758;2023-02-19T06:11:43;97990.93;;;6.25;93.56
37904;BME280;23738;50.422;18.758;2023-02-19T06:14:12;97987.39;;;6.26;93.89
37904;BME280;23738;50.422;18.758;2023-02-19T06:16:40;97988.73;;;6.26;93.68
37904;BME280;23738;50.422;18.758;2023-02-19T06:19:07;97983.27;;;6.28;93.97
37904;BME280;23738;50.422;18.758;2023-02-19T06:21:35;97979.41;;;6.31;93.94
37904;BME280;23738;50.422;18.758;2023-02-19T06:24:06;97981.94;;;6.33;93.94
37904;BME280;23738;50.422;18.758;2023-02-19T06:26:33;97986.34;;;6.30;93.81
37904;BME280;23738;50.422;18.758;2023-02-19T06:29:01;97991.97;;;6.30;94.01
37904;BME280;23738;50.422;18.758;2023-02-19T06:31:28;97996.56;;;6.29;94.11
37904;BME280;23738;50.422;18.758;2023-02-19T06:33:56;97979.91;;;6.31;94.05
37904;BME280;23738;50.422;18.758;2023-02-19T06:36:23;97978.02;;;6.35;94.07
37904;BME280;23738;50.422;18.758;2023-02-19T06:38:51;97970.80;;;6.36;94.12
37904;BME280;23738;50.422;18.758;2023-02-19T06:41:18;97975.60;;;6.40;94.19
37904;BME280;23738;50.422;18.758;2023-02-19T06:44:05;97966.86;;;6.39;94.28
37904;BME280;23738;50.422;18.758;2023-02-19T06:46:33;97969.41;;;6.39;94.30
37904;BME280;23738;50.422;18.758;2023-02-19T06:49:21;97964.27;;;6.40;94.41
37904;BME280;23738;50.422;18.758;2023-02-19T06:51:48;97964.56;;;6.45;94.32
37904;BME280;23738;50.422;18.758;2023-02-19T06:54:16;97969.23;;;6.48;94.71
37904;BME280;23738;50.422;18.758;2023-02-19T06:57:03;97966.95;;;6.49;94.62
37904;BME280;23738;50.422;18.758;2023-02-19T06:59:30;97966.33;;;6.52;94.72
37904;BME280;23738;50.422;18.758;2023-02-19T07:01:58;97967.64;;;6.49;94.43
37904;BME280;23738;50.422;18.758;2023-02-19T07:04:25;97969.34;;;6.50;94.56
37904;BME280;23738;50.422;18.758;2023-02-19T07:06:52;97972.48;;;6.56;94.46
37904;BME280;23738;50.422;18.758;2023-02-19T07:09:20;97968.73;;;6.59;94.51
37904;BME280;23738;50.422;18.758;2023-02-19T07:11:47;97964.94;;;6.59;94.57
37904;BME280;23738;50.422;18.758;2023-02-19T07:14:15;97972.25;;;6.59;94.91
37904;BME280;23738;50.422;18.758;2023-02-19T07:16:43;97966.23;;;6.58;94.82
37904;BME280;23738;50.422;18.758;2023-02-19T07:19:13;97967.05;;;6.61;95.13
37904;BME280;23738;50.422;18.758;2023-02-19T07:21:41;97969.77;;;6.62;94.64
37904;BME280;23738;50.422;18.758;2023-02-19T07:24:09;97968.65;;;6.68;95.46
37904;BME280;23738;50.422;18.758;2023-02-19T07:26:36;97968.88;;;6.75;95.06
37904;BME280;23738;50.422;18.758;2023-02-19T07:29:04;97965.38;;;6.75;95.07
37904;BME280;23738;50.422;18.758;2023-02-19T07:31:31;97964.10;;;6.77;95.31
37904;BME280;23738;50.422;18.758;2023-02-19T07:33:58;97958.06;;;6.75;95.21
37904;BME280;23738;50.422;18.758;2023-02-19T07:36:26;97961.56;;;6.75;94.96
37904;BME280;23738;50.422;18.758;2023-02-19T07:38:54;97961.04;;;6.74;94.97
37904;BME280;23738;50.422;18.758;2023-02-19T07:41:21;97959.97;;;6.76;95.03
37904;BME280;23738;50.422;18.758;2023-02-19T07:43:49;97959.02;;;6.77;94.85
37904;BME280;23738;50.422;18.758;2023-02-19T07:46:16;97954.92;;;6.76;95.03
37904;BME280;23738;50.422;18.758;2023-02-19T07:48:44;97955.95;;;6.77;95.30
37904;BME280;23738;50.422;18.758;2023-02-19T07:51:13;97954.04;;;6.76;94.99
37904;BME280;23738;50.422;18.758;2023-02-19T07:53:42;97946.23;;;6.73;95.30
37904;BME280;23738;50.422;18.758;2023-02-19T07:56:11;97948.91;;;6.73;95.19
37904;BME280;23738;50.422;18.758;2023-02-19T07:58:39;97949.16;;;6.73;95.10
37904;BME280;23738;50.422;18.758;2023-02-19T08:01:09;97950.48;;;6.71;95.18
37904;BME280;23738;50.422;18.758;2023-02-19T08:03:37;97959.77;;;6.75;95.14
37904;BME280;23738;50.422;18.758;2023-02-19T08:06:06;97961.56;;;6.77;95.19
37904;BME280;23738;50.422;18.758;2023-02-19T08:08:34;97959.41;;;6.74;95.15
37904;BME280;23738;50.422;18.758;2023-02-19T08:11:02;97963.73;;;6.74;95.33
37904;BME280;23738;50.422;18.758;2023-02-19T08:13:51;97960.05;;;6.73;95.42
37904;BME280;23738;50.422;18.758;2023-02-19T08:16:19;97962.24;;;6.73;95.29
37904;BME280;23738;50.422;18.758;2023-02-19T08:18:47;97966.05;;;6.75;95.28
37904;BME280;23738;50.422;18.758;2023-02-19T08:21:15;97965.92;;;6.79;95.76
37904;BME280;23738;50.422;18.758;2023-02-19T08:23:44;97965.42;;;6.86;95.58
37904;BME280;23738;50.422;18.758;2023-02-19T08:26:12;97968.55;;;6.88;95.28
37904;BME280;23738;50.422;18.758;2023-02-19T08:28:40;97965.98;;;6.85;95.41
37904;BME280;23738;50.422;18.758;2023-02-19T08:31:09;97968.65;;;6.81;95.31
37904;BME280;23738;50.422;18.758;2023-02-19T08:33:39;97966.79;;;6.77;95.66
37904;BME280;23738;50.422;18.758;2023-02-19T08:36:09;97968.77;;;6.74;95.24
37904;BME280;23738;50.422;18.758;2023-02-19T08:38:37;97970.84;;;6.69;95.09
37904;BME280;23738;50.422;18.758;2023-02-19T08:41:07;97971.35;;;6.64;95.06
37904;BME280;23738;50.422;18.758;2023-02-19T08:43:35;97977.89;;;6.63;94.92
37904;BME280;23738;50.422;18.758;2023-02-19T08:46:04;97982.56;;;6.61;94.86
37904;BME280;23738;50.422;18.758;2023-02-19T08:48:32;97978.36;;;6.55;95.03
37904;BME280;23738;50.422;18.758;2023-02-19T08:51:02;97985.71;;;6.52;95.23
37904;BME280;23738;50.422;18.758;2023-02-19T08:53:31;97982.27;;;6.46;94.97
37904;BME280;23738;50.422;18.758;2023-02-19T08:56:00;97978.30;;;6.43;95.30
37904;BME280;23738;50.422;18.758;2023-02-19T08:58:30;97981.39;;;6.44;95.19
37904;BME280;23738;50.422;18.758;2023-02-19T09:00:58;97979.02;;;6.44;95.14
37904;BME280;23738;50.422;18.758;2023-02-19T09:03:26;97987.10;;;6.45;95.03
37904;BME280;23738;50.422;18.758;2023-02-19T09:05:53;97991.06;;;6.40;95.06
37904;BME280;23738;50.422;18.758;2023-02-19T09:08:20;97996.96;;;6.36;94.94
37904;BME280;23738;50.422;18.758;2023-02-19T09:10:57;97997.59;;;6.32;95.30
37904;BME280;23738;50.422;18.758;2023-02-19T09:13:25;97999.80;;;6.31;95.22
37904;BME280;23738;50.422;18.758;2023-02-19T09:15:52;98002.58;;;6.29;95.15
37904;BME280;23738;50.422;18.758;2023-02-19T09:18:20;98003.38;;;6.28;95.07
37904;BME280;23738;50.422;18.758;2023-02-19T09:20:58;98007.18;;;6.27;95.13
37904;BME280;23738;50.422;18.758;2023-02-19T09:23:26;98002.34;;;6.23;95.44
37904;BME280;23738;50.422;18.758;2023-02-19T09:25:57;98009.23;;;6.22;95.30
37904;BME280;23738;50.422;18.758;2023-02-19T09:28:25;98012.91;;;6.23;95.10
37904;BME280;23738;50.422;18.758;2023-02-19T09:30:53;98013.11;;;6.22;95.60
37904;BME280;23738;50.422;18.758;2023-02-19T09:33:21;98012.67;;;6.23;95.43
37904;BME280;23738;50.422;18.758;2023-02-19T09:35:48;98015.46;;;6.20;95.31
37904;BME280;23738;50.422;18.758;2023-02-19T09:38:16;98027.80;;;6.16;95.24
37904;BME280;23738;50.422;18.758;2023-02-19T09:40:43;98039.26;;;6.07;94.84
37904;BME280;23738;50.422;18.758;2023-02-19T09:43:15;98042.04;;;6.05;95.12
37904;BME280;23738;50.422;18.758;2023-02-19T09:45:44;98052.02;;;5.98;94.61
37904;BME280;23738;50.422;18.758;2023-02-19T09:48:12;98056.34;;;5.82;94.18
37904;BME280;23738;50.422;18.758;2023-02-19T09:50:43;98064.60;;;5.68;94.29
37904;BME280;23738;50.422;18.758;2023-02-19T09:53:15;98073.95;;;5.65;94.59
37904;BME280;23738;50.422;18.758;2023-02-19T09:55:45;98079.24;;;5.61;94.50
37904;BME280;23738;50.422;18.758;2023-02-19T09:58:22;98090.46;;;5.57;93.94
37904;BME280;23738;50.422;18.758;2023-02-19T10:00:54;98087.70;;;5.48;93.98
37904;BME280;23738;50.422;18.758;2023-02-19T10:03:24;98088.36;;;5.35;93.77
37904;BME280;23738;50.422;18.758;2023-02-19T10:05:57;98099.20;;;5.32;94.01
37904;BME280;23738;50.422;18.758;2023-02-19T10:08:25;98100.78;;;5.31;94.20
37904;BME280;23738;50.422;18.758;2023-02-19T10:10:53;98101.81;;;5.28;94.13
37904;BME280;23738;50.422;18.758;2023-02-19T10:13:22;98103.48;;;5.24;94.12
37904;BME280;23738;50.422;18.758;2023-02-19T10:15:52;98101.15;;;5.25;94.52
37904;BME280;23738;50.422;18.758;2023-02-19T10:18:22;98108.81;;;5.29;94.22
37904;BME280;23738;50.422;18.758;2023-02-19T10:20:51;98114.67;;;5.36;94.53
37904;BME280;23738;50.422;18.758;2023-02-19T10:23:19;98117.23;;;5.41;94.25
37904;BME280;23738;50.422;18.758;2023-02-19T10:25:49;98116.60;;;5.42;94.27
37904;BME280;23738;50.422;18.758;2023-02-19T10:28:22;98115.36;;;5.44;93.96
37904;BME280;23738;50.422;18.758;2023-02-19T10:30:53;98116.82;;;5.42;93.98
37904;BME280;23738;50.422;18.758;2023-02-19T10:33:22;98111.70;;;5.47;94.45
37904;BME280;23738;50.422;18.758;2023-02-19T10:35:55;98115.99;;;5.65;94.86
37904;BME280;23738;50.422;18.758;2023-02-19T10:38:26;98118.86;;;5.72;94.40
37904;BME280;23738;50.422;18.758;2023-02-19T10:41:00;98123.52;;;5.74;94.72
37904;BME280;23738;50.422;18.758;2023-02-19T10:43:30;98131.21;;;5.79;94.60
37904;BME280;23738;50.422;18.758;2023-02-19T10:46:01;98142.77;;;5.75;94.22
37904;BME280;23738;50.422;18.758;2023-02-19T10:48:33;98149.23;;;5.69;94.06
37904;BME280;23738;50.422;18.758;2023-02-19T10:51:03;98149.92;;;5.64;93.95
37904;BME280;23738;50.422;18.758;2023-02-19T10:53:42;98149.27;;;5.59;93.75
37904;BME280;23738;50.422;18.758;2023-02-19T10:56:13;98145.80;;;5.54;93.57
37904;BME280;23738;50.422;18.758;2023-02-19T10:58:42;98146.55;;;5.67;94.24
37904;BME280;23738;50.422;18.758;2023-02-19T11:01:16;98165.31;;;5.84;93.83
37904;BME280;23738;50.422;18.758;2023-02-19T11:03:46;98169.67;;;5.78;93.29
37904;BME280;23738;50.422;18.758;2023-02-19T11:06:34;98168.64;;;5.65;92.78
37904;BME280;23738;50.422;18.758;2023-02-19T11:09:02;98174.23;;;5.51;92.97
37904;BME280;23738;50.422;18.758;2023-02-19T11:11:34;98166.50;;;5.43;93.28
37904;BME280;23738;50.422;18.758;2023-02-19T11:14:11;98170.89;;;5.47;93.53
37904;BME280;23738;50.422;18.758;2023-02-19T11:16:42;98174.34;;;5.52;93.43
37904;BME280;23738;50.422;18.758;2023-02-19T11:19:25;98179.63;;;5.49;93.00
37904;BME280;23738;50.422;18.758;2023-02-19T11:21:53;98180.19;;;5.42;93.16
37904;BME280;23738;50.422;18.758;2023-02-19T11:24:32;98183.98;;;5.40;93.26
37904;BME280;23738;50.422;18.758;2023-02-19T11:27:02;98191.15;;;5.37;93.20
37904;BME280;23738;50.422;18.758;2023-02-19T11:29:31;98200.49;;;5.35;93.15
37904;BME280;23738;50.422;18.758;2023-02-19T11:32:25;98196.71;;;5.33;93.17
37904;BME280;23738;50.422;18.758;2023-02-19T11:35:13;98198.88;;;5.38;93.06
37904;BME280;23738;50.422;18.758;2023-02-19T11:37:53;98205.85;;;5.30;92.56
37904;BME280;23738;50.422;18.758;2023-02-19T11:40:26;98213.39;;;5.16;92.50
37904;BME280;23738;50.422;18.758;2023-02-19T11:43:00;98226.60;;;5.07;92.83
37904;BME280;23738;50.422;18.758;2023-02-19T11:45:35;98228.38;;;5.04;92.94
37904;BME280;23738;50.422;18.758;2023-02-19T11:51:02;98240.64;;;4.91;92.42
37904;BME280;23738;50.422;18.758;2023-02-19T11:53:34;98245.05;;;4.80;92.51
37904;BME280;23738;50.422;18.758;2023-02-19T11:56:11;98243.52;;;4.72;92.46
37904;BME280;23738;50.422;18.758;2023-02-19T11:58:56;98249.98;;;4.67;92.53
37904;BME280;23738;50.422;18.758;2023-02-19T12:01:35;98261.90;;;4.64;92.64
37904;BME280;23738;50.422;18.758;2023-02-19T12:07:26;98271.38;;;4.62;92.69
37904;BME280;23738;50.422;18.758;2023-02-19T12:10:07;98274.45;;;4.58;92.69
37904;BME280;23738;50.422;18.758;2023-02-19T12:12:55;98280.11;;;4.60;92.61
37904;BME280;23738;50.422;18.758;2023-02-19T12:15:28;98280.52;;;4.57;92.29
37904;BME280;23738;50.422;18.758;2023-02-19T12:18:37;98281.08;;;4.48;92.48
37904;BME280;23738;50.422;18.758;2023-02-19T12:21:19;98279.53;;;4.36;92.16
37904;BME280;23738;50.422;18.758;2023-02-19T12:24:13;98275.79;;;4.24;91.99
37904;BME280;23738;50.422;18.758;2023-02-19T12:26:46;98278.08;;;4.23;92.20
37904;BME280;23738;50.422;18.758;2023-02-19T12:29:23;98284.97;;;4.24;92.22
37904;BME280;23738;50.422;18.758;2023-02-19T12:32:15;98278.21;;;4.20;92.11
37904;BME280;23738;50.422;18.758;2023-02-19T12:35:06;98280.38;;;4.21;92.18
37904;BME280;23738;50.422;18.758;2023-02-19T12:37:43;98289.92;;;4.22;91.87
37904;BME280;23738;50.422;18.758;2023-02-19T12:40:23;98294.30;;;4.18;91.90
37904;BME280;23738;50.422;18.758;2023-02-19T12:43:04;98297.57;;;4.17;92.01
37904;BME280;23738;50.422;18.758;2023-02-19T12:45:36;98294.91;;;4.17;91.86
37904;BME280;23738;50.422;18.758;2023-02-19T12:48:11;98296.83;;;4.15;91.71
37904;BME280;23738;50.422;18.758;2023-02-19T12:50:44;98305.47;;;4.15;91.73
37904;BME280;23738;50.422;18.758;2023-02-19T12:53:23;98308.36;;;4.14;91.77
37904;BME280;23738;50.422;18.758;2023-02-19T12:55:56;98311.70;;;4.14;91.82
37904;BME280;23738;50.422;18.758;2023-02-19T12:58:29;98317.41;;;4.13;91.82
37904;BME280;23738;50.422;18.758;2023-02-19T13:00:59;98318.98;;;4.08;91.20
37904;BME280;23738;50.422;18.758;2023-02-19T13:03:31;98325.31;;;4.01;91.11
37904;BME280;23738;50.422;18.758;2023-02-19T13:06:05;98329.00;;;3.96;90.95
37904;BME280;23738;50.422;18.758;2023-02-19T13:08:40;98323.64;;;3.86;90.81
37904;BME280;23738;50.422;18.758;2023-02-19T13:11:15;98334.58;;;3.84;91.15
37904;BME280;23738;50.422;18.758;2023-02-19T13:13:47;98345.79;;;3.92;91.00
37904;BME280;23738;50.422;18.758;2023-02-19T13:16:18;98350.90;;;3.98;91.30
37904;BME280;23738;50.422;18.758;2023-02-19T13:18:48;98351.91;;;4.06;91.18
37904;BME280;23738;50.422;18.758;2023-02-19T13:21:19;98355.64;;;4.12;91.14
37904;BME280;23738;50.422;18.758;2023-02-19T13:24:04;98360.81;;;4.26;91.16
37904;BME280;23738;50.422;18.758;2023-02-19T13:26:46;98354.50;;;4.41;90.24
37904;BME280;23738;50.422;18.758;2023-02-19T13:32:36;98362.56;;;4.46;89.56
37904;BME280;23738;50.422;18.758;2023-02-19T13:35:25;98361.04;;;4.41;89.98
37904;BME280;23738;50.422;18.758;2023-02-19T13:38:00;98369.30;;;4.39;90.21
37904;BME280;23738;50.422;18.758;2023-02-19T13:40:31;98367.58;;;4.36;90.00
37904;BME280;23738;50.422;18.758;2023-02-19T13:43:02;98371.05;;;4.38;89.83